Time;durP1;ratioP1;P1;durP2;ratioP2;P2;SDS_P1;SDS_P2;PMS_P1;PMS_P2;Temp;Humidity;BMP_temperature;BMP_pressure;BME280_temperature;BME280_humidity;BME280_pressure;Samples;Min_cycle;Max_cycle;Signal;HPM_P1;HPM_P2
2021/09/06 00:00:08;;;;;;;21.95;14.32;;;13.30;99.90;;;;;;4954720;29;20580;-67
2021/09/06 00:02:34;;;;;;;19.65;13.77;;;13.30;99.90;;;;;;4954288;28;20102;-67
2021/09/06 00:04:59;;;;;;;21.60;14.18;;;13.20;99.90;;;;;;4954651;28;20502;-67
2021/09/06 00:07:25;;;;;;;25.95;16.25;;;13.20;99.90;;;;;;4952981;28;20086;-67
2021/09/06 00:09:56;;;;;;;23.45;15.52;;;13.20;99.90;;;;;;4953516;28;20027;-67
2021/09/06 00:12:22;;;;;;;19.55;13.85;;;13.10;99.90;;;;;;4953811;28;20118;-67
2021/09/06 00:14:47;;;;;;;26.67;15.18;;;13.10;99.90;;;;;;4955411;28;20474;-67
2021/09/06 00:17:13;;;;;;;27.48;15.70;;;13.10;99.90;;;;;;4954645;28;20847;-67
2021/09/06 00:19:38;;;;;;;24.23;15.13;;;13.10;99.90;;;;;;4950213;29;20027;-67
2021/09/06 00:22:04;;;;;;;28.45;16.27;;;13.00;99.90;;;;;;4953328;28;20038;-67
2021/09/06 00:24:29;;;;;;;24.48;14.88;;;13.00;99.90;;;;;;4953293;28;20143;-67
2021/09/06 00:26:55;;;;;;;25.02;14.50;;;13.00;99.90;;;;;;4952979;28;20390;-67
2021/09/06 00:29:20;;;;;;;24.23;15.95;;;12.90;99.90;;;;;;4954355;28;20039;-67
2021/09/06 00:31:46;;;;;;;28.10;15.95;;;12.90;99.90;;;;;;4954253;29;20434;-67
2021/09/06 00:34:11;;;;;;;26.10;16.30;;;12.80;99.90;;;;;;4953117;28;20031;-67
2021/09/06 00:36:37;;;;;;;30.83;18.52;;;12.80;99.90;;;;;;4953953;28;20039;-67
2021/09/06 00:39:03;;;;;;;27.55;16.58;;;12.80;99.90;;;;;;4952610;28;20114;-67
2021/09/06 00:41:28;;;;;;;26.52;16.15;;;12.70;99.90;;;;;;4952144;28;20042;-67
2021/09/06 00:43:54;;;;;;;26.77;17.30;;;12.70;99.90;;;;;;4951727;29;20062;-67
2021/09/06 00:46:20;;;;;;;26.83;16.25;;;12.70;99.90;;;;;;4952803;29;20448;-67
2021/09/06 00:48:46;;;;;;;29.42;17.23;;;12.60;99.90;;;;;;4952680;29;20042;-67
2021/09/06 00:51:11;;;;;;;37.03;19.23;;;12.60;99.90;;;;;;4951737;28;20030;-67
2021/09/06 00:53:37;;;;;;;30.13;18.27;;;12.60;99.90;;;;;;4952859;29;20058;-67
2021/09/06 00:56:03;;;;;;;23.00;15.25;;;12.60;99.90;;;;;;4954050;28;20019;-67
2021/09/06 00:58:29;;;;;;;29.08;17.75;;;12.60;99.90;;;;;;4951943;29;20027;-67
2021/09/06 01:00:54;;;;;;;26.35;16.73;;;12.50;99.90;;;;;;4953116;29;20031;-67
2021/09/06 01:03:20;;;;;;;27.73;16.85;;;12.60;99.90;;;;;;4954158;29;20027;-67
2021/09/06 01:05:45;;;;;;;30.63;16.52;;;12.50;99.90;;;;;;4952112;28;20062;-67
2021/09/06 01:08:11;;;;;;;31.33;18.20;;;12.50;99.90;;;;;;4951612;29;20035;-68
2021/09/06 01:10:37;;;;;;;32.30;18.00;;;12.50;99.90;;;;;;4954619;28;20562;-67
2021/09/06 01:13:03;;;;;;;32.45;19.92;;;12.50;99.90;;;;;;4952605;28;20043;-67
2021/09/06 01:15:28;;;;;;;32.65;19.48;;;12.50;99.90;;;;;;4953406;29;20042;-67
2021/09/06 01:17:54;;;;;;;34.33;19.33;;;12.50;99.90;;;;;;4950591;28;20024;-67
2021/09/06 01:20:19;;;;;;;32.30;18.65;;;12.50;99.90;;;;;;4952721;29;20027;-68
2021/09/06 01:22:45;;;;;;;32.17;19.38;;;12.50;99.90;;;;;;4952073;28;20035;-68
2021/09/06 01:25:14;;;;;;;29.90;18.15;;;12.50;99.90;;;;;;4952399;29;20425;-68
2021/09/06 01:27:40;;;;;;;30.48;19.30;;;12.40;99.90;;;;;;4952509;29;20038;-68
2021/09/06 01:30:08;;;;;;;32.22;19.80;;;12.40;99.90;;;;;;4954237;28;20023;-68
2021/09/06 01:32:34;;;;;;;34.45;21.48;;;12.40;99.90;;;;;;4949155;29;20031;-68
2021/09/06 01:34:59;;;;;;;33.97;20.08;;;12.40;99.90;;;;;;4954417;28;20493;-68
2021/09/06 01:37:25;;;;;;;32.83;20.38;;;12.50;99.90;;;;;;4951481;28;20409;-68
2021/09/06 01:39:50;;;;;;;32.78;20.42;;;12.50;99.90;;;;;;4952152;29;20553;-68
2021/09/06 01:42:16;;;;;;;34.15;21.30;;;12.40;99.90;;;;;;4950853;28;20433;-68
2021/09/06 01:44:42;;;;;;;38.20;22.13;;;12.40;99.90;;;;;;4951884;29;20047;-68
2021/09/06 01:47:07;;;;;;;37.58;23.23;;;12.50;99.90;;;;;;4951918;28;20038;-68
2021/09/06 01:49:33;;;;;;;38.40;23.38;;;12.50;99.90;;;;;;4948584;29;20031;-68
2021/09/06 01:51:58;;;;;;;37.40;21.67;;;12.50;99.90;;;;;;4951393;28;20394;-68
2021/09/06 01:54:24;;;;;;;39.92;22.27;;;12.50;99.90;;;;;;4949774;29;20488;-68
2021/09/06 01:56:49;;;;;;;34.65;22.33;;;12.50;99.90;;;;;;4953869;28;20027;-68
2021/09/06 01:59:15;;;;;;;45.35;24.38;;;12.50;99.90;;;;;;4948557;29;20027;-68
2021/09/06 02:01:40;;;;;;;38.08;22.50;;;12.50;99.90;;;;;;4952344;28;20033;-68
2021/09/06 02:04:06;;;;;;;38.40;21.83;;;12.50;99.90;;;;;;4952155;28;20037;-68
2021/09/06 02:06:31;;;;;;;36.50;22.95;;;12.50;99.90;;;;;;4952051;28;20095;-68
2021/09/06 02:08:57;;;;;;;37.50;20.75;;;12.50;99.90;;;;;;4949393;29;20030;-67
2021/09/06 02:11:23;;;;;;;38.78;21.80;;;12.50;99.90;;;;;;4952684;28;20047;-68
2021/09/06 02:13:49;;;;;;;37.30;23.00;;;12.50;99.90;;;;;;4951846;29;20453;-68
2021/09/06 02:16:14;;;;;;;43.35;24.33;;;12.50;99.90;;;;;;4931357;29;20032;-69
2021/09/06 02:18:40;;;;;;;39.38;23.95;;;12.40;99.90;;;;;;4952649;29;20032;-68
2021/09/06 02:21:05;;;;;;;36.17;21.10;;;12.50;99.90;;;;;;4948856;28;20039;-68
2021/09/06 02:23:31;;;;;;;35.78;21.13;;;12.40;99.90;;;;;;4952718;29;20038;-69
2021/09/06 02:25:56;;;;;;;34.00;20.58;;;12.40;99.90;;;;;;4951457;28;20023;-68
2021/09/06 02:28:22;;;;;;;37.42;21.88;;;12.40;99.90;;;;;;4950838;28;20042;-68
2021/09/06 02:30:48;;;;;;;36.60;23.52;;;12.40;99.90;;;;;;4952374;28;20019;-69
2021/09/06 02:33:13;;;;;;;39.05;23.00;;;12.40;99.90;;;;;;4950820;29;20094;-68
2021/09/06 02:35:38;;;;;;;51.03;25.83;;;12.40;99.90;;;;;;4952128;28;20481;-69
2021/09/06 02:38:04;;;;;;;44.38;26.02;;;12.30;99.90;;;;;;4951830;28;20094;-69
2021/09/06 02:40:30;;;;;;;44.45;24.02;;;12.40;99.90;;;;;;4949612;29;20039;-68
2021/09/06 02:42:55;;;;;;;43.30;23.52;;;12.40;99.90;;;;;;4951080;29;20113;-69
2021/09/06 02:45:21;;;;;;;42.90;23.85;;;12.30;99.90;;;;;;4951729;28;20035;-68
2021/09/06 02:47:48;;;;;;;41.50;23.35;;;12.30;99.90;;;;;;4950606;29;20019;-68
2021/09/06 02:50:14;;;;;;;44.20;24.00;;;12.30;99.90;;;;;;4950749;29;20034;-69
2021/09/06 02:52:40;;;;;;;39.90;22.92;;;12.30;99.90;;;;;;4950056;28;20067;-69
2021/09/06 02:55:06;;;;;;;43.33;24.50;;;12.30;99.90;;;;;;4951937;28;20070;-69
2021/09/06 02:57:32;;;;;;;42.00;23.48;;;12.30;99.90;;;;;;4949770;28;20027;-68
2021/09/06 02:59:57;;;;;;;45.95;25.15;;;12.30;99.90;;;;;;4955509;28;20054;-69
2021/09/06 03:02:23;;;;;;;41.88;22.83;;;12.20;99.90;;;;;;4954950;29;20122;-68
2021/09/06 03:04:48;;;;;;;39.63;23.08;;;12.20;99.90;;;;;;4954714;28;20168;-68
2021/09/06 03:07:14;;;;;;;44.65;25.17;;;12.10;99.90;;;;;;4954641;28;20035;-69
2021/09/06 03:09:40;;;;;;;43.55;24.17;;;12.10;99.90;;;;;;4955663;29;20085;-68
2021/09/06 03:12:06;;;;;;;41.55;25.33;;;12.10;99.90;;;;;;4955193;28;20035;-69
2021/09/06 03:14:32;;;;;;;45.90;25.45;;;12.10;99.90;;;;;;4955419;29;20035;-68
2021/09/06 03:16:57;;;;;;;48.65;26.08;;;12.10;99.90;;;;;;4955808;29;20027;-68
2021/09/06 03:19:23;;;;;;;47.97;27.27;;;12.10;99.90;;;;;;4955875;28;20031;-68
2021/09/06 03:21:49;;;;;;;53.60;29.33;;;12.10;99.90;;;;;;4954984;28;20042;-68
2021/09/06 03:24:14;;;;;;;55.40;29.88;;;12.10;99.90;;;;;;4955231;29;20032;-68
2021/09/06 03:26:40;;;;;;;53.20;28.50;;;12.20;99.90;;;;;;4953560;28;20035;-69
2021/09/06 03:29:05;;;;;;;56.08;29.02;;;12.20;99.90;;;;;;4954435;29;20405;-68
2021/09/06 03:31:32;;;;;;;50.97;29.05;;;12.20;99.90;;;;;;4955143;29;20031;-68
2021/09/06 03:33:58;;;;;;;58.22;29.58;;;12.30;99.90;;;;;;4948589;28;20038;-68
2021/09/06 03:36:23;;;;;;;50.08;27.95;;;12.20;99.90;;;;;;4953597;29;20058;-68
2021/09/06 03:38:50;;;;;;;49.20;27.15;;;12.20;99.90;;;;;;4955179;28;20036;-69
2021/09/06 03:41:17;;;;;;;52.22;28.10;;;12.20;99.90;;;;;;4953675;28;20500;-69
2021/09/06 03:43:42;;;;;;;48.03;25.85;;;12.20;99.90;;;;;;4953167;28;20472;-69
2021/09/06 03:46:08;;;;;;;54.72;28.67;;;12.20;99.90;;;;;;4954136;28;20070;-69
2021/09/06 03:48:33;;;;;;;52.10;27.92;;;12.10;99.90;;;;;;4954222;28;20059;-68
2021/09/06 03:51:02;;;;;;;50.95;26.17;;;12.10;99.90;;;;;;4950880;29;20082;-68
2021/09/06 03:53:27;;;;;;;58.28;29.30;;;12.10;99.90;;;;;;4953020;28;20496;-69
2021/09/06 03:55:53;;;;;;;56.05;29.15;;;12.10;99.90;;;;;;4955306;28;20399;-69
2021/09/06 03:58:19;;;;;;;54.78;29.38;;;12.10;99.90;;;;;;4952594;28;20110;-68
2021/09/06 04:00:44;;;;;;;54.63;28.45;;;12.10;99.90;;;;;;4951379;28;20141;-69
2021/09/06 04:03:10;;;;;;;51.47;28.35;;;12.10;99.90;;;;;;4952974;28;20035;-69
2021/09/06 04:05:36;;;;;;;52.83;28.23;;;12.10;99.90;;;;;;4954352;28;20035;-69
2021/09/06 04:08:01;;;;;;;53.45;28.23;;;12.00;99.90;;;;;;4952212;28;20023;-68
2021/09/06 04:10:27;;;;;;;50.97;27.00;;;12.00;99.90;;;;;;4952533;28;20129;-68
2021/09/06 04:12:52;;;;;;;47.10;26.85;;;12.00;99.90;;;;;;4953524;29;20090;-68
2021/09/06 04:15:18;;;;;;;45.55;24.45;;;11.90;99.90;;;;;;4954710;28;20155;-68
2021/09/06 04:17:43;;;;;;;47.70;25.40;;;11.80;99.90;;;;;;4949991;29;20385;-69
2021/09/06 04:20:10;;;;;;;40.78;23.15;;;11.70;99.90;;;;;;4949118;29;20844;-69
2021/09/06 04:22:38;;;;;;;40.45;23.33;;;11.70;99.90;;;;;;4950074;28;20039;-68
2021/09/06 04:25:04;;;;;;;38.75;21.20;;;11.70;99.90;;;;;;4949244;28;20034;-69
2021/09/06 04:27:30;;;;;;;40.33;21.95;;;11.60;99.90;;;;;;4952308;28;20063;-69
2021/09/06 04:29:55;;;;;;;44.17;24.60;;;11.50;99.90;;;;;;4949075;28;20113;-68
2021/09/06 04:32:21;;;;;;;31.42;17.88;;;11.50;99.90;;;;;;4948351;29;20027;-68
2021/09/06 04:34:46;;;;;;;32.45;17.65;;;11.40;99.90;;;;;;4951668;29;20086;-69
2021/09/06 04:37:12;;;;;;;31.70;16.63;;;11.40;99.90;;;;;;4950591;29;20509;-69
2021/09/06 04:39:37;;;;;;;38.95;20.85;;;11.30;99.90;;;;;;4942165;29;20035;-69
2021/09/06 04:42:03;;;;;;;36.15;20.77;;;11.30;99.90;;;;;;4942773;29;20036;-69
2021/09/06 04:44:29;;;;;;;37.22;20.20;;;11.30;99.90;;;;;;4946111;28;20031;-69
2021/09/06 04:46:54;;;;;;;52.80;26.08;;;11.30;99.90;;;;;;4944953;28;20099;-69
2021/09/06 04:49:20;;;;;;;61.22;29.25;;;11.20;99.90;;;;;;4942046;29;20023;-69
2021/09/06 04:51:45;;;;;;;40.03;21.30;;;11.20;99.90;;;;;;4941426;28;20042;-66
2021/09/06 04:54:11;;;;;;;36.72;20.75;;;11.30;99.90;;;;;;4947636;28;20027;-67
2021/09/06 04:56:36;;;;;;;37.63;20.45;;;11.30;99.90;;;;;;4954053;29;20046;-68
2021/09/06 04:59:03;;;;;;;28.02;16.85;;;11.20;99.90;;;;;;4952551;29;20106;-68
2021/09/06 05:01:29;;;;;;;33.33;18.38;;;11.20;99.90;;;;;;4952327;28;20079;-68
2021/09/06 05:03:54;;;;;;;37.45;20.75;;;11.20;99.90;;;;;;4952795;28;20035;-68
2021/09/06 05:06:20;;;;;;;42.63;22.48;;;11.20;99.90;;;;;;4952202;29;20034;-68
2021/09/06 05:08:45;;;;;;;48.90;25.70;;;11.20;99.90;;;;;;4950527;28;20028;-69
2021/09/06 05:11:11;;;;;;;46.78;25.50;;;11.20;99.90;;;;;;4951663;28;20389;-69
2021/09/06 05:13:37;;;;;;;44.15;24.50;;;11.20;99.90;;;;;;4954069;29;20505;-68
2021/09/06 05:16:05;;;;;;;48.15;23.85;;;11.20;99.90;;;;;;4953164;29;20055;-68
2021/09/06 05:18:30;;;;;;;51.17;24.98;;;11.20;99.90;;;;;;4950905;28;20027;-69
2021/09/06 05:20:56;;;;;;;60.60;28.08;;;11.30;99.90;;;;;;4951800;28;20038;-69
2021/09/06 05:23:21;;;;;;;53.75;27.17;;;11.30;99.90;;;;;;4952085;28;20481;-68
2021/09/06 05:25:47;;;;;;;46.22;24.58;;;11.30;99.90;;;;;;4952311;28;20106;-69
2021/09/06 05:28:13;;;;;;;56.72;28.35;;;11.30;99.90;;;;;;4942360;28;20023;-68
2021/09/06 05:30:38;;;;;;;49.33;26.45;;;11.40;99.90;;;;;;4944635;29;20024;-67
2021/09/06 05:33:04;;;;;;;45.30;25.20;;;11.40;99.90;;;;;;4942684;28;20031;-67
2021/09/06 05:35:30;;;;;;;47.10;24.98;;;11.40;99.90;;;;;;4945867;28;20034;-67
2021/09/06 05:37:55;;;;;;;48.83;24.92;;;11.40;99.90;;;;;;4937086;29;20035;-68
2021/09/06 05:40:21;;;;;;;49.60;25.23;;;11.40;99.90;;;;;;4942182;28;20041;-67
2021/09/06 05:42:46;;;;;;;41.08;22.40;;;11.50;99.90;;;;;;4947811;29;20035;-68
2021/09/06 05:45:12;;;;;;;48.00;24.33;;;11.50;99.90;;;;;;4942430;29;20032;-68
2021/09/06 05:47:38;;;;;;;44.13;23.02;;;11.60;99.90;;;;;;4945564;29;20042;-68
2021/09/06 05:50:04;;;;;;;47.55;24.45;;;11.60;99.90;;;;;;4949281;28;20031;-68
2021/09/06 05:52:29;;;;;;;35.58;19.40;;;11.70;99.90;;;;;;4953821;29;20056;-68
2021/09/06 05:54:55;;;;;;;37.83;20.45;;;11.70;99.90;;;;;;4951367;28;20031;-68
2021/09/06 05:57:20;;;;;;;41.35;21.45;;;11.80;99.90;;;;;;4947279;28;20132;-67
2021/09/06 05:59:46;;;;;;;49.25;24.50;;;11.80;99.90;;;;;;4948086;28;20051;-67
2021/09/06 06:02:11;;;;;;;50.25;24.42;;;11.90;99.90;;;;;;4937554;29;20023;-67
2021/09/06 06:04:37;;;;;;;57.20;30.20;;;12.00;99.90;;;;;;4945152;28;20394;-67
2021/09/06 06:07:03;;;;;;;65.28;33.13;;;12.10;99.90;;;;;;4953530;28;20490;-67
2021/09/06 06:09:29;;;;;;;66.85;32.90;;;12.20;99.90;;;;;;4953567;28;20429;-67
2021/09/06 06:11:54;;;;;;;54.50;29.05;;;12.40;99.90;;;;;;4949243;29;20032;-68
2021/09/06 06:14:20;;;;;;;65.07;33.22;;;12.50;99.90;;;;;;4943043;29;20047;-68
2021/09/06 06:16:45;;;;;;;63.63;33.35;;;12.60;99.90;;;;;;4951474;28;20473;-68
2021/09/06 06:19:11;;;;;;;69.97;35.50;;;12.70;99.90;;;;;;4953191;28;20031;-69
2021/09/06 06:21:37;;;;;;;56.55;29.25;;;12.80;99.90;;;;;;4947146;29;20123;-68
2021/09/06 06:24:03;;;;;;;58.13;32.55;;;12.90;99.90;;;;;;4940424;29;20055;-68
2021/09/06 06:26:29;;;;;;;54.38;31.92;;;12.90;99.90;;;;;;4953716;28;20036;-68
2021/09/06 06:28:54;;;;;;;67.90;33.63;;;13.00;99.90;;;;;;4949492;28;20496;-68
2021/09/06 06:31:20;;;;;;;59.63;31.20;;;13.10;99.90;;;;;;4936160;29;20027;-68
2021/09/06 06:33:45;;;;;;;58.20;32.85;;;13.20;99.90;;;;;;4952584;28;20039;-68
2021/09/06 06:36:11;;;;;;;69.45;37.60;;;13.30;99.90;;;;;;4948263;29;20025;-68
2021/09/06 06:38:37;;;;;;;69.88;37.67;;;13.40;99.90;;;;;;4965462;28;20492;-69
2021/09/06 06:41:03;;;;;;;61.33;35.85;;;13.50;99.90;;;;;;4963072;28;20027;-68
2021/09/06 06:43:29;;;;;;;62.03;36.58;;;13.70;99.90;;;;;;4950996;28;20038;-69
2021/09/06 06:45:56;;;;;;;60.05;35.65;;;13.70;99.90;;;;;;4952406;28;20027;-68
2021/09/06 06:48:22;;;;;;;64.57;37.55;;;13.80;99.90;;;;;;4953274;29;20482;-68
2021/09/06 06:50:49;;;;;;;74.05;38.85;;;14.00;99.90;;;;;;4953331;29;20096;-68
2021/09/06 06:53:15;;;;;;;68.00;36.83;;;14.10;99.90;;;;;;4952522;28;20030;-69
2021/09/06 06:55:40;;;;;;;64.35;37.28;;;14.20;99.90;;;;;;4953445;28;20042;-68
2021/09/06 06:58:06;;;;;;;65.22;35.50;;;14.30;99.90;;;;;;4952371;29;20478;-68
2021/09/06 07:00:31;;;;;;;60.92;34.20;;;14.40;99.90;;;;;;4952092;29;20374;-68
2021/09/06 07:02:57;;;;;;;63.45;35.25;;;14.50;99.90;;;;;;4948132;28;20028;-68
2021/09/06 07:05:23;;;;;;;64.38;36.88;;;14.60;99.90;;;;;;4933539;29;20028;-68
2021/09/06 07:07:48;;;;;;;67.25;37.95;;;14.70;99.90;;;;;;4944627;29;20041;-69
2021/09/06 07:10:14;;;;;;;54.53;34.45;;;14.80;99.90;;;;;;4953215;28;20027;-69
2021/09/06 07:12:40;;;;;;;55.33;33.95;;;14.80;99.90;;;;;;4951697;28;20047;-69
2021/09/06 07:15:08;;;;;;;57.38;35.13;;;14.90;99.90;;;;;;4951308;28;20560;-69
2021/09/06 07:17:33;;;;;;;62.20;35.60;;;15.10;99.90;;;;;;4952988;29;20049;-69
2021/09/06 07:20:00;;;;;;;60.70;36.05;;;15.20;99.90;;;;;;4951045;29;20023;-69
2021/09/06 07:22:25;;;;;;;60.70;37.40;;;15.20;99.90;;;;;;4952574;29;20035;-68
2021/09/06 07:24:51;;;;;;;53.47;33.15;;;15.40;99.90;;;;;;4952083;28;20103;-68
2021/09/06 07:27:17;;;;;;;53.58;33.83;;;15.50;99.90;;;;;;4951952;28;20363;-68
2021/09/06 07:29:42;;;;;;;55.30;34.10;;;15.60;99.90;;;;;;4948220;28;20091;-68
2021/09/06 07:32:09;;;;;;;54.85;33.40;;;15.70;99.90;;;;;;4955777;28;20041;-68
2021/09/06 07:34:35;;;;;;;50.28;32.67;;;15.80;99.90;;;;;;4953645;28;20035;-68
2021/09/06 07:37:06;;;;;;;54.38;33.13;;;16.00;99.90;;;;;;4952595;29;20023;-68
2021/09/06 07:39:32;;;;;;;52.53;33.50;;;16.20;99.90;;;;;;4951021;29;20032;-68
2021/09/06 07:41:59;;;;;;;49.38;31.42;;;16.30;99.90;;;;;;4951345;28;20113;-67
2021/09/06 07:44:25;;;;;;;53.95;32.33;;;16.40;99.90;;;;;;4944480;28;20083;-68
2021/09/06 07:46:52;;;;;;;48.95;31.00;;;16.50;99.90;;;;;;4954940;28;20031;-67
2021/09/06 07:49:18;;;;;;;49.05;32.28;;;16.70;99.90;;;;;;4953367;29;20034;-67
2021/09/06 07:51:46;;;;;;;49.15;31.55;;;16.80;99.90;;;;;;4955909;28;20398;-68
2021/09/06 07:54:12;;;;;;;50.03;32.70;;;16.90;99.90;;;;;;4956124;28;20537;-68
2021/09/06 07:56:38;;;;;;;49.22;30.65;;;17.10;99.90;;;;;;4947185;29;20111;-68
2021/09/06 07:59:04;;;;;;;43.60;29.23;;;17.20;99.90;;;;;;4957840;28;20046;-68
2021/09/06 08:01:29;;;;;;;43.25;29.63;;;17.30;99.90;;;;;;4947429;29;20490;-68
2021/09/06 08:03:55;;;;;;;46.20;30.20;;;17.40;99.90;;;;;;4947812;29;20036;-68
2021/09/06 08:06:20;;;;;;;41.58;28.23;;;17.50;99.90;;;;;;4943659;28;20036;-68
2021/09/06 08:08:46;;;;;;;41.25;27.48;;;17.60;99.90;;;;;;4952806;29;20038;-69
2021/09/06 08:11:11;;;;;;;49.28;30.50;;;17.80;99.90;;;;;;4955864;29;20032;-68
2021/09/06 08:13:37;;;;;;;41.83;29.92;;;17.90;99.90;;;;;;4956289;29;20122;-68
2021/09/06 08:16:03;;;;;;;44.00;28.60;;;18.00;99.90;;;;;;4955964;29;20027;-68
2021/09/06 08:18:28;;;;;;;41.50;26.35;;;18.10;99.90;;;;;;4953719;28;20039;-68
2021/09/06 08:20:54;;;;;;;37.80;25.42;;;18.10;99.90;;;;;;4956073;29;20039;-69
2021/09/06 08:23:19;;;;;;;37.05;25.65;;;18.20;99.90;;;;;;4937884;28;20040;-69
2021/09/06 08:25:45;;;;;;;41.55;27.48;;;18.30;99.90;;;;;;4941449;29;20082;-69
2021/09/06 08:28:10;;;;;;;36.97;25.65;;;18.40;99.90;;;;;;4937304;28;20038;-69
2021/09/06 08:30:36;;;;;;;42.10;26.83;;;18.50;99.90;;;;;;4936835;29;20031;-68
2021/09/06 08:33:03;;;;;;;32.38;23.83;;;18.60;99.90;;;;;;4948923;29;20039;-67
2021/09/06 08:35:28;;;;;;;31.20;22.73;;;18.70;99.90;;;;;;4955718;28;20042;-67
2021/09/06 08:37:54;;;;;;;32.50;22.85;;;18.80;99.90;;;;;;4951015;29;20020;-67
2021/09/06 08:40:19;;;;;;;33.42;22.35;;;18.90;99.90;;;;;;4954803;29;20027;-67
2021/09/06 08:42:45;;;;;;;36.47;23.42;;;19.00;99.80;;;;;;4955578;28;20110;-67
2021/09/06 08:45:12;;;;;;;29.35;19.33;;;19.10;99.50;;;;;;4955379;29;20226;-69
2021/09/06 08:47:38;;;;;;;31.02;21.58;;;19.20;99.20;;;;;;4952287;29;20059;-68
2021/09/06 08:50:07;;;;;;;28.85;21.10;;;19.30;98.90;;;;;;4953245;28;20048;-68
2021/09/06 08:52:33;;;;;;;31.13;21.55;;;19.30;98.40;;;;;;4955644;28;20031;-68
2021/09/06 08:54:58;;;;;;;26.17;18.67;;;19.40;98.20;;;;;;4951989;29;20039;-69
2021/09/06 08:57:24;;;;;;;29.00;21.40;;;19.50;97.80;;;;;;4953561;28;20038;-69
2021/09/06 08:59:57;;;;;;;32.15;22.58;;;19.50;97.50;;;;;;4949563;28;20023;-68
2021/09/06 09:02:23;;;;;;;31.27;22.25;;;19.50;97.30;;;;;;4948075;28;20285;-68
2021/09/06 09:05:02;;;;;;;29.70;20.83;;;19.60;97.10;;;;;;4935881;29;20119;-68
2021/09/06 09:07:29;;;;;;;28.25;19.27;;;19.60;97.20;;;;;;4945405;28;20086;-69
2021/09/06 09:09:55;;;;;;;28.13;20.40;;;19.80;97.10;;;;;;4953459;29;20548;-68
2021/09/06 09:12:21;;;;;;;29.60;19.65;;;20.00;96.90;;;;;;4954245;29;20094;-68
2021/09/06 09:14:49;;;;;;;24.88;17.85;;;20.10;96.60;;;;;;4954407;28;20047;-68
2021/09/06 09:17:15;;;;;;;24.27;17.63;;;20.20;96.30;;;;;;4952796;28;20035;-68
2021/09/06 09:19:41;;;;;;;23.42;16.85;;;20.40;95.70;;;;;;4953733;28;20404;-68
2021/09/06 09:22:13;;;;;;;21.88;17.02;;;20.40;95.10;;;;;;4954319;28;20027;-68
2021/09/06 09:24:39;;;;;;;22.73;16.52;;;20.40;94.90;;;;;;4952096;28;20067;-68
2021/09/06 09:27:12;;;;;;;24.00;16.00;;;20.40;94.60;;;;;;4935345;29;20083;-66
2021/09/06 09:29:43;;;;;;;25.65;16.38;;;20.50;94.80;;;;;;4943258;28;20035;-66
2021/09/06 09:32:11;;;;;;;19.40;15.07;;;20.60;94.30;;;;;;4953232;28;20513;-66
2021/09/06 09:34:39;;;;;;;18.50;12.85;;;20.70;93.90;;;;;;4954617;28;20031;-66
2021/09/06 09:37:05;;;;;;;15.75;11.52;;;20.80;93.50;;;;;;4952476;28;20497;-66
2021/09/06 09:39:33;;;;;;;21.70;13.40;;;20.90;92.40;;;;;;4953497;28;20031;-66
2021/09/06 09:42:09;;;;;;;17.73;11.68;;;20.90;91.90;;;;;;4951084;29;21874;-66
2021/09/06 09:44:46;;;;;;;16.25;11.80;;;21.00;91.90;;;;;;4965709;28;20379;-66
2021/09/06 09:47:12;;;;;;;19.65;12.98;;;21.10;91.30;;;;;;4953585;28;20031;-66
2021/09/06 09:49:38;;;;;;;18.67;12.82;;;21.10;91.30;;;;;;4950241;29;20036;-66
2021/09/06 09:52:05;;;;;;;17.77;12.00;;;21.20;91.00;;;;;;4951411;28;20039;-66
2021/09/06 09:54:31;;;;;;;16.70;11.10;;;21.20;90.60;;;;;;4953805;28;20043;-66
2021/09/06 09:56:57;;;;;;;17.38;10.98;;;21.30;90.00;;;;;;4949457;29;20023;-66
2021/09/06 09:59:22;;;;;;;16.20;10.50;;;21.30;90.40;;;;;;4959145;28;20175;-66
2021/09/06 10:01:53;;;;;;;17.30;11.95;;;21.40;90.30;;;;;;4950930;28;20086;-67
2021/09/06 10:04:23;;;;;;;15.38;11.00;;;21.50;90.00;;;;;;4934600;29;20039;-67
2021/09/06 10:06:51;;;;;;;16.35;11.63;;;21.60;90.00;;;;;;4946749;29;20063;-67
2021/09/06 10:09:16;;;;;;;20.02;12.73;;;21.70;90.10;;;;;;4952666;28;20481;-68
2021/09/06 10:11:43;;;;;;;19.38;12.48;;;21.90;89.70;;;;;;4953825;29;20114;-68
2021/09/06 10:14:19;;;;;;;17.85;12.27;;;21.90;89.00;;;;;;4951843;29;20035;-68
2021/09/06 10:17:00;;;;;;;17.42;11.57;;;21.90;88.80;;;;;;4953517;29;20030;-68
2021/09/06 10:19:40;;;;;;;19.00;11.10;;;22.00;89.10;;;;;;4950622;29;20113;-69
2021/09/06 10:22:06;;;;;;;18.20;11.30;;;22.10;88.50;;;;;;4945825;28;20271;-68
2021/09/06 10:24:31;;;;;;;16.85;12.20;;;22.10;87.90;;;;;;4942140;29;20043;-68
2021/09/06 10:27:05;;;;;;;17.52;11.98;;;22.20;87.50;;;;;;4934810;29;20027;-68
2021/09/06 10:29:31;;;;;;;16.77;12.10;;;22.30;86.30;;;;;;4934625;29;20402;-67
2021/09/06 10:32:04;;;;;;;14.32;10.05;;;22.40;86.20;;;;;;4941032;29;20027;-67
2021/09/06 10:34:30;;;;;;;14.75;10.70;;;22.40;85.50;;;;;;4945957;29;20028;-68
2021/09/06 10:37:04;;;;;;;15.23;9.80;;;22.50;84.00;;;;;;4953112;28;20028;-68
2021/09/06 10:39:31;;;;;;;15.38;10.55;;;22.60;82.40;;;;;;4950663;28;20072;-68
2021/09/06 10:42:07;;;;;;;20.60;12.57;;;22.60;82.30;;;;;;4953630;29;20035;-68
2021/09/06 10:44:38;;;;;;;13.55;9.63;;;22.70;82.10;;;;;;4934943;29;20031;-68
2021/09/06 10:47:11;;;;;;;13.45;9.27;;;22.80;82.60;;;;;;4932686;29;20545;-68
2021/09/06 10:49:44;;;;;;;13.20;8.15;;;22.90;81.70;;;;;;4946210;28;20050;-67
2021/09/06 10:52:11;;;;;;;16.17;9.23;;;23.00;81.30;;;;;;4953351;28;20034;-68
2021/09/06 10:54:38;;;;;;;13.82;9.38;;;23.10;79.40;;;;;;4953436;28;20027;-68
2021/09/06 10:57:07;;;;;;;12.02;7.43;;;23.20;78.30;;;;;;4937637;29;20028;-68
2021/09/06 10:59:33;;;;;;;11.07;7.65;;;23.20;77.60;;;;;;4934137;29;20394;-69
2021/09/06 11:01:59;;;;;;;14.13;8.88;;;23.30;76.40;;;;;;4947068;29;20031;-67
2021/09/06 11:04:27;;;;;;;16.23;9.10;;;23.40;75.20;;;;;;4953260;28;20478;-68
2021/09/06 11:07:06;;;;;;;10.15;7.53;;;23.40;74.90;;;;;;4950255;29;20553;-69
2021/09/06 11:09:36;;;;;;;12.25;9.07;;;23.50;74.20;;;;;;4946390;28;20027;-68
2021/09/06 11:12:08;;;;;;;11.48;8.00;;;23.50;73.00;;;;;;4954682;28;20477;-69
2021/09/06 11:14:34;;;;;;;;;;;23.50;72.70;;;;;;4959402;28;20031;-69
2021/09/06 11:17:00;;;;;;;10.25;6.97;;;23.40;73.80;;;;;;4943772;28;19910;-68
2021/09/06 11:19:30;;;;;;;9.60;6.75;;;23.40;74.70;;;;;;4950656;28;20474;-68
2021/09/06 11:21:58;;;;;;;12.77;7.00;;;23.40;74.30;;;;;;4945250;28;20027;-68
2021/09/06 11:24:26;;;;;;;10.50;6.90;;;23.60;74.00;;;;;;4951285;29;20428;-68
2021/09/06 11:26:51;;;;;;;9.63;6.97;;;23.80;73.20;;;;;;4938437;28;20027;-67
2021/09/06 11:29:17;;;;;;;8.63;6.22;;;24.00;72.10;;;;;;4941957;29;20462;-67
2021/09/06 11:31:47;;;;;;;10.98;7.72;;;24.20;71.40;;;;;;4953274;29;20032;-68
2021/09/06 11:34:14;;;;;;;11.85;7.88;;;24.40;70.10;;;;;;4952978;28;20042;-67
2021/09/06 11:36:40;;;;;;;10.07;7.32;;;24.50;69.40;;;;;;4951634;28;20039;-68
2021/09/06 11:39:09;;;;;;;13.70;8.88;;;24.50;69.20;;;;;;4941321;29;20090;-67
2021/09/06 11:41:39;;;;;;;12.77;9.27;;;24.40;68.50;;;;;;4951574;28;20046;-68
2021/09/06 11:44:09;;;;;;;13.75;9.23;;;24.40;68.60;;;;;;4956175;28;20103;-68
2021/09/06 11:46:38;;;;;;;17.95;9.48;;;24.30;68.00;;;;;;4950805;28;20038;-67
2021/09/06 11:49:04;;;;;;;18.92;11.43;;;24.20;67.70;;;;;;4955073;28;20079;-68
2021/09/06 11:51:30;;;;;;;12.55;9.60;;;24.10;67.80;;;;;;4953760;28;20027;-68
2021/09/06 11:54:04;;;;;;;14.15;9.30;;;24.00;68.50;;;;;;4955590;28;20023;-68
2021/09/06 11:56:30;;;;;;;12.93;8.98;;;23.80;68.90;;;;;;4951753;29;20425;-67
2021/09/06 11:59:02;;;;;;;12.30;8.35;;;23.80;69.70;;;;;;4953643;29;20028;-67
2021/09/06 12:01:31;;;;;;;13.10;8.50;;;23.60;70.00;;;;;;4954210;28;20023;-68
2021/09/06 12:04:10;;;;;;;14.85;9.02;;;23.60;70.20;;;;;;4955183;29;20485;-67
2021/09/06 12:06:38;;;;;;;14.30;10.40;;;23.60;70.20;;;;;;4954650;29;20031;-67
2021/09/06 12:09:03;;;;;;;15.57;9.80;;;23.70;69.20;;;;;;4952143;28;20438;-67
2021/09/06 12:11:40;;;;;;;14.02;8.77;;;23.80;69.30;;;;;;4947275;29;20059;-67
2021/09/06 12:14:08;;;;;;;14.95;8.27;;;24.00;69.70;;;;;;4949646;29;20047;-67
2021/09/06 12:16:37;;;;;;;15.30;10.05;;;24.20;70.00;;;;;;4946013;28;20034;-67
2021/09/06 12:19:16;;;;;;;14.52;10.30;;;24.30;69.20;;;;;;4955469;28;20102;-70
2021/09/06 12:21:43;;;;;;;15.10;10.73;;;24.30;68.30;;;;;;4944345;29;20086;-67
2021/09/06 12:24:09;;;;;;;18.15;10.93;;;24.30;68.90;;;;;;4939744;29;20079;-67